Time;durP1;ratioP1;P1;durP2;ratioP2;P2;SDS_P1;SDS_P2;PMS_P1;PMS_P2;Temp;Humidity;BMP_temperature;BMP_pressure;BME280_temperature;BME280_humidity;BME280_pressure;Samples;Min_cycle;Max_cycle;Signal;HPM_P1;HPM_P2
2022/07/21 00:02:02;;;;;;;12.98;10.38;;;;;;;;;;5084572;28;20336;-17
2022/07/21 00:04:29;;;;;;;15.00;10.05;;;;;;;;;;5091864;28;20225;-17
2022/07/21 00:06:57;;;;;;;10.65;9.50;;;;;;;;;;5092514;28;20283;-17
2022/07/21 00:09:24;;;;;;;10.38;9.30;;;;;;;;;;5091069;28;20709;-17
2022/07/21 00:11:53;;;;;;;11.35;9.68;;;;;;;;;;5093696;28;20221;-17
2022/07/21 00:14:20;;;;;;;11.75;9.50;;;;;;;;;;5093574;28;21044;-16
2022/07/21 00:16:47;;;;;;;10.57;8.75;;;;;;;;;;5093569;28;20233;-16
2022/07/21 00:19:15;;;;;;;9.90;8.75;;;;;;;;;;5091065;28;20243;-16
2022/07/21 00:21:42;;;;;;;10.82;9.10;;;;;;;;;;5093681;28;20232;-17
2022/07/21 00:24:10;;;;;;;9.70;8.77;;;;;;;;;;5093448;28;20232;-18
2022/07/21 00:26:37;;;;;;;9.80;8.73;;;;;;;;;;5093507;28;20286;-17
2022/07/21 00:29:06;;;;;;;9.60;8.50;;;;;;;;;;5086885;28;20240;-17
2022/07/21 00:31:33;;;;;;;9.93;8.93;;;;;;;;;;5078863;28;20235;-17
2022/07/21 00:34:00;;;;;;;11.38;8.25;;;;;;;;;;5076982;28;20280;-17
2022/07/21 00:36:28;;;;;;;12.10;8.30;;;;;;;;;;5084383;28;20232;-17
2022/07/21 00:38:55;;;;;;;10.10;9.00;;;;;;;;;;5093476;28;21094;-17
2022/07/21 00:41:23;;;;;;;9.30;8.15;;;;;;;;;;5090643;28;20232;-17
2022/07/21 00:43:51;;;;;;;12.27;8.73;;;;;;;;;;5092610;28;20225;-17
2022/07/21 00:46:21;;;;;;;9.60;8.40;;;;;;;;;;5093068;28;20233;-17
2022/07/21 00:48:49;;;;;;;9.38;8.38;;;;;;;;;;5093546;28;20239;-18
2022/07/21 00:51:17;;;;;;;8.88;7.93;;;;;;;;;;5092556;28;20221;-17
2022/07/21 00:53:44;;;;;;;8.98;8.07;;;;;;;;;;5092271;28;20244;-17
2022/07/21 00:56:11;;;;;;;8.55;7.70;;;;;;;;;;5086393;28;20228;-16
2022/07/21 00:58:40;;;;;;;8.50;7.55;;;;;;;;;;5093092;28;20225;-16
2022/07/21 01:01:07;;;;;;;8.15;7.22;;;;;;;;;;5081167;28;20232;-15
2022/07/21 01:03:37;;;;;;;11.98;7.85;;;;;;;;;;5090557;28;20221;-15
2022/07/21 01:06:04;;;;;;;13.45;7.63;;;;;;;;;;5078553;28;20240;-17
2022/07/21 01:08:32;;;;;;;10.10;8.68;;;;;;;;;;5090991;28;20797;-17
2022/07/21 01:10:59;;;;;;;10.88;7.07;;;;;;;;;;5091782;28;20229;-17
2022/07/21 01:13:26;;;;;;;8.20;7.40;;;;;;;;;;5083249;28;20252;-16
2022/07/21 01:15:54;;;;;;;8.02;7.13;;;;;;;;;;5090088;28;20224;-16
2022/07/21 01:18:21;;;;;;;21.98;7.57;;;;;;;;;;5091563;28;20282;-17
2022/07/21 01:20:53;;;;;;;9.45;7.60;;;;;;;;;;5092719;28;20992;-17
2022/07/21 01:23:22;;;;;;;7.60;6.80;;;;;;;;;;5092759;28;20244;-16
2022/07/21 01:25:49;;;;;;;8.70;7.25;;;;;;;;;;5089306;28;20239;-18
2022/07/21 01:28:17;;;;;;;7.57;6.82;;;;;;;;;;5091852;28;20323;-17
2022/07/21 01:30:44;;;;;;;7.90;7.13;;;;;;;;;;5092243;28;20225;-17
2022/07/21 01:33:11;;;;;;;8.20;7.28;;;;;;;;;;5077568;28;20264;-17
2022/07/21 01:35:39;;;;;;;8.48;7.30;;;;;;;;;;5087456;28;20263;-17
2022/07/21 01:41:28;;;;;;;8.82;7.22;;;;;;;;;;5085199;28;20241;-17
2022/07/21 01:43:43;;;;;;;10.93;7.63;;;;;;;;;;5092669;28;20232;-14
2022/07/21 01:46:11;;;;;;;10.10;7.80;;;;;;;;;;5092248;28;20233;-15
2022/07/21 01:48:41;;;;;;;9.35;6.93;;;;;;;;;;5092014;28;20263;-16
2022/07/21 01:51:08;;;;;;;8.57;7.68;;;;;;;;;;5085514;28;20221;-17
2022/07/21 01:53:36;;;;;;;9.38;7.93;;;;;;;;;;5077677;28;21056;-16
2022/07/21 01:56:05;;;;;;;8.13;7.32;;;;;;;;;;5092102;28;20233;-16
2022/07/21 01:58:32;;;;;;;10.00;7.90;;;;;;;;;;5091364;28;20225;-18
2022/07/21 02:01:00;;;;;;;8.98;7.88;;;;;;;;;;5076030;28;21057;-16
2022/07/21 02:03:27;;;;;;;8.63;7.32;;;;;;;;;;5092749;28;20233;-16
2022/07/21 02:06:00;;;;;;;8.43;7.63;;;;;;;;;;5092065;28;20229;-17
2022/07/21 02:08:27;;;;;;;9.40;7.75;;;;;;;;;;5079958;28;20225;-15
2022/07/21 02:10:55;;;;;;;9.05;8.15;;;;;;;;;;5081308;28;20229;-15
2022/07/21 02:13:23;;;;;;;8.20;7.47;;;;;;;;;;5100532;27;20236;-17
2022/07/21 02:15:51;;;;;;;8.48;7.57;;;;;;;;;;5088826;27;20237;-17
2022/07/21 02:18:19;;;;;;;8.95;8.05;;;;;;;;;;5077769;28;20228;-17
2022/07/21 02:20:47;;;;;;;9.98;8.32;;;;;;;;;;5087634;28;20236;-17
2022/07/21 02:23:14;;;;;;;11.70;8.48;;;;;;;;;;5084002;22;20233;-16
2022/07/21 02:25:42;;;;;;;9.70;8.02;;;;;;;;;;5071715;28;20228;-16
2022/07/21 02:28:09;;;;;;;9.13;8.18;;;;;;;;;;5062587;28;20229;-16
2022/07/21 02:30:38;;;;;;;9.23;8.43;;;;;;;;;;5071796;28;20316;-16
2022/07/21 02:33:05;;;;;;;8.90;7.75;;;;;;;;;;5072154;28;20320;-16
2022/07/21 02:35:33;;;;;;;9.55;8.60;;;;;;;;;;5070821;28;20237;-16
2022/07/21 02:38:00;;;;;;;8.95;8.05;;;;;;;;;;5071020;28;20236;-16
2022/07/21 02:40:28;;;;;;;9.55;8.52;;;;;;;;;;5070870;28;20233;-15
2022/07/21 02:42:55;;;;;;;9.57;8.40;;;;;;;;;;5070979;28;20229;-16
2022/07/21 02:45:23;;;;;;;8.80;7.90;;;;;;;;;;5069822;28;20221;-16
2022/07/21 02:47:52;;;;;;;12.75;8.60;;;;;;;;;;5065123;28;20233;-16
2022/07/21 02:50:20;;;;;;;8.98;8.13;;;;;;;;;;5070528;28;20221;-16
2022/07/21 02:52:47;;;;;;;8.55;7.75;;;;;;;;;;5070769;28;20234;-15
2022/07/21 02:55:15;;;;;;;11.65;9.10;;;;;;;;;;5070464;28;20332;-15
2022/07/21 02:57:43;;;;;;;14.20;9.00;;;;;;;;;;5062032;28;20312;-15
2022/07/21 03:00:10;;;;;;;10.15;7.95;;;;;;;;;;5070962;28;20329;-16
2022/07/21 03:02:38;;;;;;;10.02;9.02;;;;;;;;;;5062684;28;20233;-15
2022/07/21 03:05:07;;;;;;;9.77;8.55;;;;;;;;;;5070332;28;20371;-16
2022/07/21 03:07:34;;;;;;;11.65;8.63;;;;;;;;;;5070194;28;20885;-16
2022/07/21 03:10:02;;;;;;;11.98;8.25;;;;;;;;;;5070831;28;20303;-16
2022/07/21 03:12:29;;;;;;;10.23;8.15;;;;;;;;;;5070308;28;20325;-16
2022/07/21 03:14:57;;;;;;;10.32;8.65;;;;;;;;;;5070371;28;20245;-16
2022/07/21 03:17:24;;;;;;;10.55;8.65;;;;;;;;;;5070576;28;20325;-16
2022/07/21 03:19:51;;;;;;;11.02;9.93;;;;;;;;;;5069461;28;20711;-16
2022/07/21 03:22:20;;;;;;;9.10;8.13;;;;;;;;;;5070010;28;20247;-16
2022/07/21 03:24:50;;;;;;;11.00;9.68;;;;;;;;;;5069193;28;20704;-15
2022/07/21 03:27:18;;;;;;;11.20;9.27;;;;;;;;;;5070587;28;21060;-15
2022/07/21 03:29:45;;;;;;;10.27;9.23;;;;;;;;;;5069913;28;20955;-15
2022/07/21 03:32:12;;;;;;;15.43;10.88;;;;;;;;;;5071392;28;21118;-16
2022/07/21 03:34:40;;;;;;;13.50;9.90;;;;;;;;;;5065370;28;20591;-15
2022/07/21 03:37:07;;;;;;;11.52;10.18;;;;;;;;;;5070661;28;20235;-16
2022/07/21 03:39:36;;;;;;;11.95;10.13;;;;;;;;;;5070558;28;20709;-16
2022/07/21 03:42:03;;;;;;;12.40;9.65;;;;;;;;;;5071085;28;20225;-15
2022/07/21 03:44:31;;;;;;;11.48;9.40;;;;;;;;;;5070886;28;20233;-15
2022/07/21 03:46:59;;;;;;;12.30;10.07;;;;;;;;;;5070975;28;20229;-15
2022/07/21 03:49:27;;;;;;;11.32;10.18;;;;;;;;;;5070683;28;20319;-16
2022/07/21 03:51:54;;;;;;;14.43;10.68;;;;;;;;;;5070706;28;20312;-16
2022/07/21 03:54:21;;;;;;;13.88;10.30;;;;;;;;;;5069264;28;20321;-15
2022/07/21 03:56:50;;;;;;;11.65;9.85;;;;;;;;;;5070764;28;20235;-16
2022/07/21 03:59:18;;;;;;;12.13;10.10;;;;;;;;;;5051944;28;20328;-16
2022/07/21 04:01:45;;;;;;;12.40;11.10;;;;;;;;;;5057924;28;20237;-16
2022/07/21 04:04:12;;;;;;;13.13;11.30;;;;;;;;;;5069889;28;20320;-16
2022/07/21 04:06:40;;;;;;;14.00;10.85;;;;;;;;;;5070809;28;20233;-16
2022/07/21 04:09:07;;;;;;;12.65;11.35;;;;;;;;;;5069790;28;20324;-15
2022/07/21 04:11:35;;;;;;;13.15;11.90;;;;;;;;;;5070215;28;20735;-15
2022/07/21 04:14:03;;;;;;;12.73;11.40;;;;;;;;;;5070133;28;20701;-15
2022/07/21 04:16:31;;;;;;;13.00;11.70;;;;;;;;;;5069611;28;20243;-15
2022/07/21 04:18:58;;;;;;;15.93;12.23;;;;;;;;;;5061847;28;20724;-15
2022/07/21 04:21:26;;;;;;;12.73;11.43;;;;;;;;;;5068831;28;21010;-16
2022/07/21 04:23:54;;;;;;;12.75;10.70;;;;;;;;;;5066336;28;20353;-15
2022/07/21 04:26:21;;;;;;;12.38;11.18;;;;;;;;;;5063156;28;20239;-15
2022/07/21 04:28:48;;;;;;;12.70;10.25;;;;;;;;;;5062267;28;20700;-15
2022/07/21 04:31:18;;;;;;;11.77;10.63;;;;;;;;;;5061427;28;20280;-16
2022/07/21 04:33:45;;;;;;;11.82;10.70;;;;;;;;;;5061467;28;20235;-16
2022/07/21 04:36:13;;;;;;;13.63;11.70;;;;;;;;;;5058264;28;20248;-16
2022/07/21 04:38:40;;;;;;;16.48;10.75;;;;;;;;;;5062954;28;20288;-16
2022/07/21 04:41:07;;;;;;;15.15;12.90;;;;;;;;;;5057173;28;20708;-16
2022/07/21 04:43:35;;;;;;;14.93;12.52;;;;;;;;;;5064086;28;20226;-15
2022/07/21 04:46:02;;;;;;;19.67;14.48;;;;;;;;;;5063236;28;20704;-15
2022/07/21 04:48:31;;;;;;;18.58;16.67;;;;;;;;;;5066383;28;20236;-15
2022/07/21 04:50:58;;;;;;;19.10;16.23;;;;;;;;;;5057987;28;20759;-15
2022/07/21 04:53:26;;;;;;;19.63;16.80;;;;;;;;;;5070109;28;20269;-15
2022/07/21 04:55:53;;;;;;;18.52;16.70;;;;;;;;;;5059949;28;20233;-16
2022/07/21 04:58:21;;;;;;;19.77;17.77;;;;;;;;;;5065150;28;20602;-15
2022/07/21 05:00:48;;;;;;;19.08;17.08;;;;;;;;;;5069287;28;20248;-16
2022/07/21 05:03:15;;;;;;;20.52;18.38;;;;;;;;;;5070255;28;20229;-15
2022/07/21 05:05:44;;;;;;;20.05;17.95;;;;;;;;;;5070225;28;20230;-16
2022/07/21 05:08:11;;;;;;;19.65;17.65;;;;;;;;;;5071078;28;20688;-15
2022/07/21 05:10:39;;;;;;;19.73;17.63;;;;;;;;;;5072468;28;20308;-15
2022/07/21 05:13:06;;;;;;;18.98;16.92;;;;;;;;;;5072796;28;20299;-15
2022/07/21 05:15:34;;;;;;;20.30;17.77;;;;;;;;;;5071575;28;20331;-15
2022/07/21 05:18:01;;;;;;;20.42;18.20;;;;;;;;;;5072620;28;20241;-15
2022/07/21 05:20:29;;;;;;;21.85;18.35;;;;;;;;;;5071934;28;20648;-16
2022/07/21 05:22:57;;;;;;;20.70;15.52;;;;;;;;;;5071987;28;20241;-15
2022/07/21 05:25:25;;;;;;;19.70;15.48;;;;;;;;;;5072633;28;20245;-15
2022/07/21 05:27:52;;;;;;;18.23;14.90;;;;;;;;;;5072317;28;20321;-15
2022/07/21 05:30:20;;;;;;;18.13;16.20;;;;;;;;;;5064952;28;20225;-15
2022/07/21 05:32:47;;;;;;;18.83;16.83;;;;;;;;;;5072378;28;20228;-16
2022/07/21 05:35:15;;;;;;;19.65;17.60;;;;;;;;;;5071969;28;20234;-15
2022/07/21 05:37:42;;;;;;;16.58;14.15;;;;;;;;;;5072434;28;20315;-15
2022/07/21 05:40:11;;;;;;;19.05;17.05;;;;;;;;;;5070767;28;20328;-15
2022/07/21 05:42:39;;;;;;;21.10;17.20;;;;;;;;;;5059385;28;20286;-15
2022/07/21 05:45:07;;;;;;;19.67;16.20;;;;;;;;;;5068149;28;20771;-15
2022/07/21 05:47:35;;;;;;;18.73;16.90;;;;;;;;;;5071666;28;20344;-15
2022/07/21 05:50:02;;;;;;;21.63;18.85;;;;;;;;;;5068719;28;20232;-15
2022/07/21 05:52:29;;;;;;;21.10;18.75;;;;;;;;;;5068969;28;20229;-16
2022/07/21 05:54:57;;;;;;;22.50;20.08;;;;;;;;;;5071616;28;20278;-15
2022/07/21 05:57:26;;;;;;;24.10;19.48;;;;;;;;;;5071656;28;20332;-15
2022/07/21 05:59:53;;;;;;;23.52;20.15;;;;;;;;;;5071792;28;20324;-16
2022/07/21 06:02:20;;;;;;;24.70;19.58;;;;;;;;;;5070584;28;20226;-15
2022/07/21 06:04:48;;;;;;;25.20;21.17;;;;;;;;;;5071348;28;20231;-16
2022/07/21 06:07:15;;;;;;;22.05;19.50;;;;;;;;;;5071621;28;20716;-16
2022/07/21 06:09:43;;;;;;;22.08;19.70;;;;;;;;;;5066752;28;20376;-15
2022/07/21 06:12:10;;;;;;;23.60;19.58;;;;;;;;;;5071293;28;20772;-15
2022/07/21 06:14:39;;;;;;;21.30;19.00;;;;;;;;;;5069317;28;20232;-15
2022/07/21 06:17:06;;;;;;;19.65;16.40;;;;;;;;;;5069549;28;20241;-15
2022/07/21 06:19:34;;;;;;;23.50;21.10;;;;;;;;;;5069143;28;20244;-16
2022/07/21 06:22:02;;;;;;;28.77;23.88;;;;;;;;;;5069865;28;20271;-15
2022/07/21 06:24:29;;;;;;;33.25;26.25;;;;;;;;;;5067529;28;20329;-15
2022/07/21 06:26:57;;;;;;;29.23;24.73;;;;;;;;;;5068651;28;20364;-15
2022/07/21 06:29:32;;;;;;;31.80;24.20;;;;;;;;;;5063707;28;20229;-15
2022/07/21 06:32:00;;;;;;;32.85;25.60;;;;;;;;;;5067969;28;20297;-16
2022/07/21 06:34:28;;;;;;;38.33;26.38;;;;;;;;;;5068127;28;20292;-15
2022/07/21 06:36:55;;;;;;;27.50;22.40;;;;;;;;;;5067514;28;20267;-16
2022/07/21 06:39:23;;;;;;;33.83;23.08;;;;;;;;;;5067767;28;20233;-15
2022/07/21 06:41:50;;;;;;;31.90;24.85;;;;;;;;;;5058206;28;20233;-15
2022/07/21 06:44:18;;;;;;;28.95;25.65;;;;;;;;;;5063515;28;20225;-16
2022/07/21 06:46:46;;;;;;;27.33;24.08;;;;;;;;;;5066968;28;20747;-15
2022/07/21 06:49:15;;;;;;;25.73;21.85;;;;;;;;;;5064710;28;20273;-15
2022/07/21 06:51:42;;;;;;;26.77;21.90;;;;;;;;;;5067356;28;20609;-16
2022/07/21 06:54:10;;;;;;;31.85;24.80;;;;;;;;;;5069617;28;20236;-15
2022/07/21 06:56:37;;;;;;;28.98;25.50;;;;;;;;;;5066290;28;20241;-15
2022/07/21 06:59:04;;;;;;;31.80;26.52;;;;;;;;;;5068059;28;20332;-15
2022/07/21 07:01:32;;;;;;;30.80;27.23;;;;;;;;;;5068848;28;20234;-15
2022/07/21 07:03:59;;;;;;;31.83;26.55;;;;;;;;;;5066127;28;20237;-15
2022/07/21 07:06:28;;;;;;;34.83;28.75;;;;;;;;;;5064724;28;20241;-15
2022/07/21 07:08:56;;;;;;;36.97;30.88;;;;;;;;;;5069459;28;20336;-15
2022/07/21 07:11:23;;;;;;;36.47;30.20;;;;;;;;;;5070275;28;20233;-17
2022/07/21 07:13:51;;;;;;;33.45;29.27;;;;;;;;;;5066997;28;20230;-15
2022/07/21 07:16:25;;;;;;;37.55;31.00;;;;;;;;;;5062989;28;20221;-15
2022/07/21 07:18:53;;;;;;;39.10;31.50;;;;;;;;;;5063151;28;20712;-15
2022/07/21 07:21:21;;;;;;;40.45;32.22;;;;;;;;;;5065878;28;20284;-16
2022/07/21 07:23:50;;;;;;;37.72;32.75;;;;;;;;;;5069616;28;20326;-16
2022/07/21 07:26:18;;;;;;;39.78;30.60;;;;;;;;;;5062703;28;20234;-17
2022/07/21 07:28:45;;;;;;;38.53;32.47;;;;;;;;;;5067475;28;20229;-16
2022/07/21 07:31:13;;;;;;;35.90;31.63;;;;;;;;;;5065097;28;20233;-16
2022/07/21 07:33:40;;;;;;;36.00;30.20;;;;;;;;;;5065493;28;20234;-17
2022/07/21 07:36:11;;;;;;;36.03;30.65;;;;;;;;;;5067830;28;20237;-17
2022/07/21 07:38:39;;;;;;;37.08;32.97;;;;;;;;;;5062048;28;21039;-17
2022/07/21 07:41:08;;;;;;;37.53;31.05;;;;;;;;;;5064193;28;20804;-17
2022/07/21 07:43:35;;;;;;;31.73;26.35;;;;;;;;;;5056918;28;20233;-17
2022/07/21 07:46:04;;;;;;;29.40;25.20;;;;;;;;;;5069274;28;20237;-17
2022/07/21 07:48:34;;;;;;;26.63;23.77;;;;;;;;;;5061409;28;21187;-17
2022/07/21 07:51:01;;;;;;;26.20;23.42;;;;;;;;;;5059410;28;20222;-17
2022/07/21 07:53:29;;;;;;;28.23;21.83;;;;;;;;;;5065414;28;20268;-17
2022/07/21 07:55:56;;;;;;;24.40;21.85;;;;;;;;;;5068677;28;20226;-17
2022/07/21 07:58:25;;;;;;;24.38;21.17;;;;;;;;;;5068452;28;20241;-17
2022/07/21 08:00:52;;;;;;;23.70;20.48;;;;;;;;;;5065525;28;20734;-17
2022/07/21 08:03:22;;;;;;;34.03;21.85;;;;;;;;;;5065615;28;21078;-17
2022/07/21 08:05:50;;;;;;;26.55;20.98;;;;;;;;;;5069105;28;20260;-17
2022/07/21 08:08:17;;;;;;;24.48;20.75;;;;;;;;;;5069294;28;20624;-15
2022/07/21 08:10:45;;;;;;;26.73;19.85;;;;;;;;;;5069754;28;20230;-17
2022/07/21 08:13:13;;;;;;;22.52;20.08;;;;;;;;;;5073141;28;20720;-17
2022/07/21 08:15:42;;;;;;;20.98;18.85;;;;;;;;;;5071952;28;20287;-17
2022/07/21 08:18:10;;;;;;;24.05;18.50;;;;;;;;;;5072963;28;20348;-17
2022/07/21 08:20:37;;;;;;;21.67;17.83;;;;;;;;;;5073276;28;20229;-17
2022/07/21 08:23:05;;;;;;;22.90;18.05;;;;;;;;;;5073127;28;20265;-15
2022/07/21 08:25:32;;;;;;;20.75;18.65;;;;;;;;;;5073549;28;20700;-15
2022/07/21 08:28:00;;;;;;;27.35;18.27;;;;;;;;;;5073796;28;20259;-16
2022/07/21 08:30:27;;;;;;;20.13;17.83;;;;;;;;;;5073392;28;20704;-17
2022/07/21 08:32:58;;;;;;;19.55;17.15;;;;;;;;;;5072929;28;20237;-17
2022/07/21 08:35:26;;;;;;;22.38;17.55;;;;;;;;;;5069025;28;20225;-17
2022/07/21 08:37:54;;;;;;;24.73;17.20;;;;;;;;;;5072243;28;20252;-17
2022/07/21 08:40:23;;;;;;;18.00;16.10;;;;;;;;;;5071772;28;20233;-17
2022/07/21 08:42:50;;;;;;;19.42;16.80;;;;;;;;;;5072788;28;20362;-17
2022/07/21 08:45:18;;;;;;;20.27;17.40;;;;;;;;;;5072420;28;20233;-17
2022/07/21 08:47:45;;;;;;;20.45;17.08;;;;;;;;;;5069499;28;20230;-17
2022/07/21 08:50:14;;;;;;;19.00;16.13;;;;;;;;;;5070435;28;20321;-17
2022/07/21 08:52:41;;;;;;;19.83;16.45;;;;;;;;;;5071104;28;20556;-17
2022/07/21 08:55:08;;;;;;;17.73;15.93;;;;;;;;;;5071914;28;20320;-17
2022/07/21 08:57:38;;;;;;;16.50;14.93;;;;;;;;;;5071967;28;20237;-17
2022/07/21 09:00:06;;;;;;;16.75;14.98;;;;;;;;;;5068857;28;20320;-17
2022/07/21 09:02:34;;;;;;;17.20;15.40;;;;;;;;;;5072139;28;20264;-17
2022/07/21 09:05:04;;;;;;;17.48;15.50;;;;;;;;;;5072594;28;20240;-17
2022/07/21 09:07:34;;;;;;;17.17;15.45;;;;;;;;;;5073280;28;20233;-17
2022/07/21 09:10:01;;;;;;;16.67;14.82;;;;;;;;;;5071426;28;20724;-17
2022/07/21 09:12:29;;;;;;;17.33;15.10;;;;;;;;;;5072600;28;20264;-17
2022/07/21 09:15:11;;;;;;;16.98;14.73;;;;;;;;;;5072492;28;20265;-17
2022/07/21 09:17:39;;;;;;;16.45;14.80;;;;;;;;;;5072377;28;20253;-17
2022/07/21 09:20:26;;;;;;;16.85;14.38;;;;;;;;;;5071826;28;22602;-17
2022/07/21 09:23:09;;;;;;;15.27;13.80;;;;;;;;;;5070580;28;20249;-17
2022/07/21 09:25:37;;;;;;;15.85;14.25;;;;;;;;;;5072425;28;20324;-17
2022/07/21 09:28:11;;;;;;;16.25;14.52;;;;;;;;;;5072511;28;20740;-15
2022/07/21 09:30:51;;;;;;;16.40;13.95;;;;;;;;;;5072123;28;20221;-15
2022/07/21 09:33:19;;;;;;;16.25;14.45;;;;;;;;;;5070351;28;20742;-15
2022/07/21 09:35:57;;;;;;;16.88;13.68;;;;;;;;;;5071559;28;20354;-15
2022/07/21 09:38:25;;;;;;;16.05;13.88;;;;;;;;;;5072378;28;20245;-17
2022/07/21 09:40:53;;;;;;;15.55;13.85;;;;;;;;;;5072071;28;20240;-17
2022/07/21 09:43:34;;;;;;;15.32;13.57;;;;;;;;;;5072020;28;20233;-17
2022/07/21 09:46:02;;;;;;;15.10;13.50;;;;;;;;;;5070290;28;20233;-17
2022/07/21 09:48:30;;;;;;;14.85;13.35;;;;;;;;;;5071424;28;20351;-17
2022/07/21 09:51:23;;;;;;;16.33;14.15;;;;;;;;;;5067107;28;20221;-17
2022/07/21 09:53:53;;;;;;;14.23;12.77;;;;;;;;;;5071067;28;20240;-15
2022/07/21 09:56:21;;;;;;;14.52;13.00;;;;;;;;;;5071821;28;20236;-15
2022/07/21 09:58:48;;;;;;;14.18;12.68;;;;;;;;;;5071448;28;20252;-15
2022/07/21 10:01:16;;;;;;;14.52;13.02;;;;;;;;;;5071905;28;20324;-15
2022/07/21 10:03:44;;;;;;;15.25;13.73;;;;;;;;;;5070991;28;20233;-15
2022/07/21 10:06:11;;;;;;;15.40;13.75;;;;;;;;;;5072065;28;20217;-15
2022/07/21 10:08:38;;;;;;;15.55;13.15;;;;;;;;;;5071669;28;20230;-17
2022/07/21 10:11:07;;;;;;;13.20;12.00;;;;;;;;;;5071726;28;20759;-16
2022/07/21 10:13:40;;;;;;;14.65;13.07;;;;;;;;;;5071302;28;20244;-17
2022/07/21 10:16:09;;;;;;;14.25;12.75;;;;;;;;;;5070618;28;20229;-17
2022/07/21 10:18:37;;;;;;;16.17;13.30;;;;;;;;;;5071478;28;20233;-17
2022/07/21 10:21:05;;;;;;;14.00;12.50;;;;;;;;;;5071611;28;20320;-17
2022/07/21 10:23:36;;;;;;;13.93;12.45;;;;;;;;;;5058193;28;21095;-17
2022/07/21 10:26:05;;;;;;;14.38;12.38;;;;;;;;;;5065371;28;20943;-17
2022/07/21 10:28:34;;;;;;;13.85;12.40;;;;;;;;;;5071867;28;20225;-17
2022/07/21 10:31:12;;;;;;;13.85;12.35;;;;;;;;;;5062956;28;20313;-17
2022/07/21 10:33:53;;;;;;;13.93;11.73;;;;;;;;;;5071287;28;20239;-17
2022/07/21 10:36:40;;;;;;;12.25;11.07;;;;;;;;;;5070301;28;20240;-17
2022/07/21 10:39:24;;;;;;;12.52;11.23;;;;;;;;;;5059060;28;21070;-17
2022/07/21 10:41:51;;;;;;;13.30;12.00;;;;;;;;;;5068195;28;20716;-17
2022/07/21 10:44:37;;;;;;;12.27;10.95;;;;;;;;;;5071167;28;20229;-17
2022/07/21 10:47:06;;;;;;;11.60;10.38;;;;;;;;;;5071220;28;20679;-17
2022/07/21 10:49:58;;;;;;;10.75;9.65;;;;;;;;;;5071116;28;20241;-17
2022/07/21 10:52:45;;;;;;;9.73;8.82;;;;;;;;;;5057385;28;20324;-17
2022/07/21 10:55:16;;;;;;;9.38;8.45;;;;;;;;;;5070754;28;20256;-17
2022/07/21 10:57:44;;;;;;;8.73;7.82;;;;;;;;;;5071493;28;20233;-17
2022/07/21 11:00:22;;;;;;;12.13;7.63;;;;;;;;;;5070118;28;20249;-17
2022/07/21 11:02:51;;;;;;;10.25;8.25;;;;;;;;;;5058988;28;20363;-17
2022/07/21 11:05:20;;;;;;;7.78;7.07;;;;;;;;;;5070180;28;20252;-17
2022/07/21 11:08:11;;;;;;;8.02;7.20;;;;;;;;;;5071381;28;20317;-17
2022/07/21 11:10:39;;;;;;;8.40;7.60;;;;;;;;;;5049981;28;20303;-17
2022/07/21 11:13:06;;;;;;;8.00;6.78;;;;;;;;;;5071403;28;20316;-17
2022/07/21 11:15:54;;;;;;;7.55;6.72;;;;;;;;;;5069916;28;21018;-17
2022/07/21 11:18:23;;;;;;;8.55;7.15;;;;;;;;;;5071345;28;20225;-17
2022/07/21 11:21:08;;;;;;;7.90;7.10;;;;;;;;;;5070415;28;20229;-17
2022/07/21 11:23:39;;;;;;;7.97;7.13;;;;;;;;;;5057108;28;20324;-16
2022/07/21 11:26:07;;;;;;;7.15;6.45;;;;;;;;;;5064080;28;20229;-17
2022/07/21 11:28:34;;;;;;;7.38;6.57;;;;;;;;;;5068959;28;20727;-17
2022/07/21 11:31:11;;;;;;;7.78;6.20;;;;;;;;;;5070212;28;20324;-17
2022/07/21 11:33:40;;;;;;;7.40;6.70;;;;;;;;;;5069858;28;20697;-17
2022/07/21 11:36:08;;;;;;;6.13;5.63;;;;;;;;;;5071123;28;20233;-17
2022/07/21 11:38:46;;;;;;;6.45;5.80;;;;;;;;;;5070658;28;20734;-17
2022/07/21 11:41:14;;;;;;;6.70;5.95;;;;;;;;;;5070452;28;20312;-17
2022/07/21 11:43:42;;;;;;;5.57;5.07;;;;;;;;;;5069895;28;20229;-17
2022/07/21 11:46:09;;;;;;;5.95;5.38;;;;;;;;;;5071223;28;20237;-17
2022/07/21 11:48:36;;;;;;;6.15;5.65;;;;;;;;;;5074172;28;20234;-17
2022/07/21 11:51:06;;;;;;;5.82;5.32;;;;;;;;;;5062830;28;20229;-17
2022/07/21 11:53:33;;;;;;;6.38;5.78;;;;;;;;;;5073612;28;20225;-17
2022/07/21 11:56:00;;;;;;;5.97;5.45;;;;;;;;;;5073366;28;20255;-17
2022/07/21 11:58:28;;;;;;;6.45;5.40;;;;;;;;;;5074647;28;20229;-17
2022/07/21 12:01:05;;;;;;;5.28;4.78;;;;;;;;;;5073091;28;20668;-17
2022/07/21 12:03:32;;;;;;;4.78;4.38;;;;;;;;;;5074080;28;20236;-17
2022/07/21 12:06:00;;;;;;;5.05;4.55;;;;;;;;;;5073220;28;20704;-17
2022/07/21 12:08:29;;;;;;;4.85;4.40;;;;;;;;;;5074165;28;20221;-17
2022/07/21 12:11:06;;;;;;;4.47;4.07;;;;;;;;;;5073857;28;20584;-17
2022/07/21 12:13:48;;;;;;;4.65;4.25;;;;;;;;;;5073921;28;20257;-15
2022/07/21 12:16:16;;;;;;;4.80;4.05;;;;;;;;;;5065711;28;20590;-17
2022/07/21 12:18:43;;;;;;;4.20;3.80;;;;;;;;;;5073869;28;20238;-17
2022/07/21 12:21:11;;;;;;;3.78;3.33;;;;;;;;;;5073176;28;20732;-17
2022/07/21 12:23:40;;;;;;;4.53;4.13;;;;;;;;;;5073245;28;20684;-15
2022/07/21 12:26:07;;;;;;;3.95;3.60;;;;;;;;;;5073296;28;20240;-17
2022/07/21 12:28:44;;;;;;;3.95;3.58;;;;;;;;;;5073510;28;20700;-17
2022/07/21 12:31:12;;;;;;;3.70;3.40;;;;;;;;;;5067036;28;20279;-17
2022/07/21 12:33:39;;;;;;;4.30;3.90;;;;;;;;;;5073560;28;20320;-17
2022/07/21 12:36:26;;;;;;;3.40;3.10;;;;;;;;;;5073326;28;20240;-17
2022/07/21 12:38:55;;;;;;;3.70;3.40;;;;;;;;;;5072508;28;20244;-17
2022/07/21 12:41:23;;;;;;;3.63;3.20;;;;;;;;;;5073170;28;20671;-16
2022/07/21 12:43:54;;;;;;;3.30;3.00;;;;;;;;;;5059527;28;20779;-17
2022/07/21 12:46:28;;;;;;;3.20;2.90;;;;;;;;;;5072426;28;20307;-17
2022/07/21 12:49:03;;;;;;;2.90;2.70;;;;;;;;;;5072441;28;20771;-17
2022/07/21 12:51:39;;;;;;;3.75;2.92;;;;;;;;;;5073255;28;20240;-15
2022/07/21 12:54:07;;;;;;;3.53;3.20;;;;;;;;;;5061234;28;20234;-15
2022/07/21 12:56:35;;;;;;;3.20;2.90;;;;;;;;;;5072955;28;20680;-15
2022/07/21 12:59:03;;;;;;;3.70;3.20;;;;;;;;;;5071448;28;20287;-15
2022/07/21 13:01:32;;;;;;;3.00;2.80;;;;;;;;;;5075040;28;20352;-17
2022/07/21 13:04:00;;;;;;;3.40;3.08;;;;;;;;;;5073065;28;20270;-17
2022/07/21 13:06:27;;;;;;;3.72;2.83;;;;;;;;;;5073264;28;20816;-17
2022/07/21 13:08:54;;;;;;;5.40;3.20;;;;;;;;;;5072924;28;20226;-15
2022/07/21 13:11:24;;;;;;;3.47;3.17;;;;;;;;;;5071495;28;20328;-15
2022/07/21 13:13:51;;;;;;;2.78;2.58;;;;;;;;;;5072625;28;20230;-15
2022/07/21 13:16:19;;;;;;;3.25;2.95;;;;;;;;;;5072626;28;20265;-17
2022/07/21 13:18:50;;;;;;;3.33;3.03;;;;;;;;;;5072729;28;20238;-17
2022/07/21 13:21:18;;;;;;;3.28;2.97;;;;;;;;;;5071804;28;20236;-17
2022/07/21 13:23:46;;;;;;;3.17;2.97;;;;;;;;;;5067915;28;20288;-17
2022/07/21 13:26:13;;;;;;;3.22;2.97;;;;;;;;;;5072943;28;20232;-17
2022/07/21 13:28:42;;;;;;;3.85;2.85;;;;;;;;;;5072394;28;20229;-17
2022/07/21 13:31:09;;;;;;;3.75;2.90;;;;;;;;;;5072724;28;20781;-17
2022/07/21 13:33:37;;;;;;;3.55;3.10;;;;;;;;;;5071921;28;20264;-17
2022/07/21 13:36:05;;;;;;;3.70;3.17;;;;;;;;;;5071799;28;20226;-17
2022/07/21 13:38:32;;;;;;;3.08;2.80;;;;;;;;;;5066858;28;20233;-17
2022/07/21 13:41:00;;;;;;;3.50;2.97;;;;;;;;;;5072675;28;20237;-17
2022/07/21 13:43:49;;;;;;;3.83;2.92;;;;;;;;;;5071907;28;20971;-17
2022/07/21 13:46:16;;;;;;;3.22;2.88;;;;;;;;;;5072259;28;20287;-15
2022/07/21 13:48:44;;;;;;;3.20;2.90;;;;;;;;;;5072482;28;20295;-15
2022/07/21 13:51:12;;;;;;;2.95;2.72;;;;;;;;;;5072333;28;20271;-17
2022/07/21 13:53:39;;;;;;;3.67;2.85;;;;;;;;;;5070632;28;20240;-17
2022/07/21 13:56:07;;;;;;;2.28;2.08;;;;;;;;;;5071567;28;20322;-17
2022/07/21 13:58:34;;;;;;;2.97;2.60;;;;;;;;;;5072231;28;21050;-15
2022/07/21 14:01:03;;;;;;;2.50;2.30;;;;;;;;;;5071049;28;20749;-15
2022/07/21 14:03:31;;;;;;;2.50;2.30;;;;;;;;;;5071900;28;20236;-15
2022/07/21 14:05:58;;;;;;;2.67;2.45;;;;;;;;;;5070302;28;20328;-15
2022/07/21 14:08:25;;;;;;;2.42;2.10;;;;;;;;;;5071836;28;20257;-15
2022/07/21 14:10:53;;;;;;;2.15;1.95;;;;;;;;;;5071775;28;20321;-15
2022/07/21 14:13:20;;;;;;;2.47;2.15;;;;;;;;;;5071846;28;21082;-17
2022/07/21 14:15:48;;;;;;;2.55;2.35;;;;;;;;;;5071404;28;20225;-15
2022/07/21 14:18:17;;;;;;;2.08;1.88;;;;;;;;;;5071140;28;20236;-15
2022/07/21 14:20:44;;;;;;;2.30;2.03;;;;;;;;;;5071467;28;20765;-15
2022/07/21 14:23:11;;;;;;;2.42;2.15;;;;;;;;;;5071364;28;20600;-15
2022/07/21 14:25:39;;;;;;;2.35;2.13;;;;;;;;;;5070823;28;20233;-17
2022/07/21 14:28:07;;;;;;;2.50;2.30;;;;;;;;;;5071280;28;21107;-17
2022/07/21 14:30:34;;;;;;;2.50;2.30;;;;;;;;;;5071820;28;20308;-17
2022/07/21 14:33:01;;;;;;;2.35;2.15;;;;;;;;;;5072014;28;20229;-17
2022/07/21 14:35:30;;;;;;;3.42;2.40;;;;;;;;;;5071086;28;21084;-17
2022/07/21 14:37:58;;;;;;;2.10;1.90;;;;;;;;;;5071686;28;20324;-15
2022/07/21 14:40:25;;;;;;;2.25;2.08;;;;;;;;;;5070220;28;20363;-17
2022/07/21 14:42:53;;;;;;;3.53;2.53;;;;;;;;;;5071801;28;20700;-17